Andes, New York
Current Conditions -  °F | °C
As of 3:55 PM on Sunday 21 Dec 2014 (Local Time) from KMSV Reporting Station
Overcast Overcast  
Wind Chill: 30°   Ceiling: 2100
Heat Index: 30°   Visibility: 10mi
Dew Point: 25°   Wind: 3mph
Humidity: 80%   Direction: 280°W
Pressure: 30.25"   Gusts: NA
Location:  42.19°N, 74.79°W
Report Text: KMSV 212055Z AUTO 28003KT 10SM OVC021 M01/M04 A3025 RMK AO1 54000
Loading
Personal Weather Stations






























Interactive Weather Map New forecast layout! Learn more

10-Day Weather Forecast

Advertisements
Track Severe Weather on mobile